Time;durP1;ratioP1;P1;durP2;ratioP2;P2;SDS_P1;SDS_P2;PMS_P1;PMS_P2;Temp;Humidity;BMP_temperature;BMP_pressure;BME280_temperature;BME280_humidity;BME280_pressure;Samples;Min_cycle;Max_cycle;Signal;HPM_P1;HPM_P2
2022/11/18 00:00:45;;;;;;;7.53;3.50;;;;;;;-145.18;100.00;46691.66;4988482;28;20764;-71
2022/11/18 00:03:11;;;;;;;9.83;3.60;;;;;;;-145.18;100.00;46693.59;4992396;28;20034;-71
2022/11/18 00:05:36;;;;;;;5.90;2.90;;;;;;;-145.18;100.00;46695.56;4992292;28;20052;-72
2022/11/18 00:08:01;;;;;;;8.43;2.77;;;;;;;-145.18;100.00;46691.66;4992319;28;20058;-71
2022/11/18 00:10:27;;;;;;;10.03;3.73;;;;;;;-145.18;100.00;46693.59;4992328;28;20483;-72
2022/11/18 00:15:36;;;;;;;10.03;2.83;;;;;;;-145.18;100.00;46695.56;4992380;28;20084;-71
2022/11/18 00:18:01;;;;;;;6.80;2.57;;;;;;;-145.18;100.00;46681.88;4992172;28;20805;-71
2022/11/18 00:20:26;;;;;;;10.07;3.27;;;;;;;-145.18;100.00;46687.75;4992058;28;20547;-71
2022/11/18 00:22:52;;;;;;;12.23;3.83;;;;;;;-145.18;100.00;46691.66;4992030;28;20041;-71
2022/11/18 00:25:17;;;;;;;9.07;3.47;;;;;;;-145.18;100.00;46685.78;4991997;28;20027;-71
2022/11/18 00:27:42;;;;;;;6.30;2.93;;;;;;;-145.18;100.00;46685.78;4987070;28;20034;-71
2022/11/18 00:30:09;;;;;;;9.77;4.00;;;;;;;-145.18;100.00;46687.75;4991876;28;20042;-71
2022/11/18 00:32:34;;;;;;;7.83;3.77;;;;;;;-145.18;100.00;46683.84;4991837;28;20046;-72
2022/11/18 00:34:59;;;;;;;7.90;3.33;;;;;;;-145.18;100.00;46689.69;4991838;28;20672;-72
2022/11/18 00:37:25;;;;;;;10.47;3.37;;;;;;;-145.18;100.00;46681.88;4992181;28;20105;-71
2022/11/18 00:39:50;;;;;;;9.30;3.57;;;;;;;-145.18;100.00;46683.84;4991710;28;20045;-71
2022/11/18 00:45:00;;;;;;;8.87;3.47;;;;;;;-145.18;100.00;46691.66;4991920;28;20049;-71
2022/11/18 00:47:25;;;;;;;15.50;4.67;;;;;;;-145.18;100.00;46685.78;4991684;28;20300;-71
2022/11/18 00:49:50;;;;;;;12.67;3.67;;;;;;;-145.18;100.00;46693.59;4971948;28;20030;-72
2022/11/18 00:52:16;;;;;;;9.60;3.30;;;;;;;-145.18;100.00;46685.78;4991647;28;20038;-71
2022/11/18 00:54:41;;;;;;;6.07;3.33;;;;;;;-145.18;100.00;46685.78;4991824;28;20511;-71
2022/11/18 00:57:06;;;;;;;6.73;3.00;;;;;;;-145.18;100.00;46685.78;4991234;28;20042;-72
2022/11/18 00:59:32;;;;;;;12.27;3.57;;;;;;;-145.18;100.00;46689.69;4991851;28;20118;-72
2022/11/18 01:01:57;;;;;;;13.53;3.63;;;;;;;-145.18;100.00;46683.84;4972347;28;20484;-71
2022/11/18 01:04:22;;;;;;;10.10;2.90;;;;;;;-145.18;100.00;46685.78;4991356;28;20455;-72
2022/11/18 01:06:48;;;;;;;8.30;3.47;;;;;;;-145.18;100.00;46685.78;4991249;28;20058;-71
2022/11/18 01:09:13;;;;;;;9.63;3.77;;;;;;;-145.18;100.00;46685.78;4991179;28;20077;-72
2022/11/18 01:14:24;;;;;;;7.60;3.80;;;;;;;-145.18;100.00;46687.75;4991664;28;20084;-72
2022/11/18 01:16:53;;;;;;;6.07;3.50;;;;;;;-145.18;100.00;46681.88;4991311;28;20268;-71
2022/11/18 01:19:19;;;;;;;12.13;3.37;;;;;;;-145.18;100.00;46677.97;4991161;28;20351;-72
2022/11/18 01:21:45;;;;;;;14.97;3.73;;;;;;;-145.18;100.00;46681.88;4990875;28;20264;-71
2022/11/18 01:24:10;;;;;;;6.60;3.47;;;;;;;-145.18;100.00;46677.97;4991229;28;20271;-72
2022/11/18 01:26:35;;;;;;;9.10;3.50;;;;;;;-145.18;100.00;46677.97;4990857;28;20497;-72
2022/11/18 01:29:01;;;;;;;9.97;3.53;;;;;;;-145.18;100.00;46685.78;4991289;28;20042;-72
2022/11/18 01:31:26;;;;;;;10.33;4.03;;;;;;;-145.18;100.00;46683.84;4990980;28;20038;-72
2022/11/18 01:33:51;;;;;;;6.93;3.30;;;;;;;-145.18;100.00;46681.88;4987288;28;20034;-71
2022/11/18 01:36:23;;;;;;;12.43;3.70;;;;;;;-145.18;100.00;46681.88;4990914;28;20045;-71
2022/11/18 01:38:50;;;;;;;12.57;4.27;;;;;;;-145.18;100.00;46681.88;4986537;28;20038;-72
2022/11/18 01:41:17;;;;;;;16.77;4.47;;;;;;;-145.18;100.00;46681.88;4990920;28;20579;-72
2022/11/18 01:43:57;;;;;;;9.63;4.00;;;;;;;-145.18;100.00;46677.97;4991133;28;20264;-72
2022/11/18 01:46:25;;;;;;;15.40;4.53;;;;;;;-145.18;100.00;46683.84;4991009;28;20360;-72
2022/11/18 01:49:03;;;;;;;12.33;4.40;;;;;;;-145.18;100.00;46677.97;4990879;28;20326;-71
2022/11/18 01:51:35;;;;;;;11.70;3.67;;;;;;;-145.18;100.00;46676.03;4990843;28;20291;-72
2022/11/18 01:54:07;;;;;;;8.87;3.73;;;;;;;-145.18;100.00;46687.75;4990888;28;20256;-72
2022/11/18 01:56:40;;;;;;;10.13;4.13;;;;;;;-145.18;100.00;46679.94;4990676;28;20263;-72
2022/11/18 01:59:10;;;;;;;10.80;4.20;;;;;;;-145.18;100.00;46683.84;4990784;28;20256;-72
2022/11/18 02:01:35;;;;;;;14.37;4.23;;;;;;;-145.18;100.00;46681.88;4990521;28;20299;-72
2022/11/18 02:04:01;;;;;;;8.10;3.87;;;;;;;-145.18;100.00;46679.94;4990789;28;20354;-71
2022/11/18 02:06:26;;;;;;;10.53;3.57;;;;;;;-145.18;100.00;46679.94;4990449;28;20050;-72
2022/11/18 02:08:53;;;;;;;8.70;4.07;;;;;;;-145.18;100.00;46683.84;4990636;28;20435;-72
2022/11/18 02:14:07;;;;;;;8.70;4.00;;;;;;;-145.18;100.00;46681.88;4990644;28;20251;-72
2022/11/18 02:16:57;;;;;;;15.57;4.23;;;;;;;-145.18;100.00;46681.88;4990243;28;20272;-72
2022/11/18 02:19:41;;;;;;;11.40;4.17;;;;;;;-145.18;100.00;46679.94;4990630;28;20320;-72
2022/11/18 02:22:36;;;;;;;9.67;4.20;;;;;;;-145.18;100.00;46683.84;4990619;28;20267;-72
2022/11/18 02:25:28;;;;;;;8.70;4.30;;;;;;;-145.18;100.00;46679.94;5004718;28;20633;-72
2022/11/18 02:28:15;;;;;;;14.20;4.33;;;;;;;-145.18;100.00;46681.88;4990511;28;20272;-72
2022/11/18 02:30:51;;;;;;;13.27;4.40;;;;;;;-145.18;100.00;46681.88;4990519;28;20264;-72
2022/11/18 02:33:25;;;;;;;11.67;4.83;;;;;;;-145.18;100.00;46677.97;4982101;28;20636;-72
2022/11/18 02:36:11;;;;;;;12.30;4.53;;;;;;;-145.18;100.00;46683.84;4990617;28;20268;-72
2022/11/18 02:38:44;;;;;;;10.87;4.63;;;;;;;-145.18;100.00;46679.94;4990606;28;20275;-72
2022/11/18 02:41:15;;;;;;;10.87;4.37;;;;;;;-145.18;100.00;46677.97;4990389;28;20322;-72
2022/11/18 02:43:50;;;;;;;10.20;3.73;;;;;;;-145.18;100.00;46683.84;4990442;28;20343;-72
2022/11/18 02:46:23;;;;;;;11.43;4.70;;;;;;;-145.18;100.00;46676.03;4990038;28;20903;-72
2022/11/18 02:48:51;;;;;;;9.60;4.37;;;;;;;-145.18;100.00;46677.97;4990400;28;20083;-71
2022/11/18 02:51:22;;;;;;;8.90;4.30;;;;;;;-145.18;100.00;46679.94;4993855;28;20621;-72
2022/11/18 02:53:49;;;;;;;10.93;4.40;;;;;;;-145.18;100.00;46679.94;4993835;28;20260;-72
2022/11/18 02:56:17;;;;;;;8.27;3.87;;;;;;;-145.18;100.00;46681.88;4993600;28;20734;-72
2022/11/18 02:58:42;;;;;;;14.13;5.00;;;;;;;-145.18;100.00;46681.88;4993642;28;20272;-72
2022/11/18 03:03:43;;;;;;;10.63;4.65;;;;;;;-145.18;100.00;46670.16;5224194;23;20086;-72
2022/11/18 03:06:25;;;;;;;11.13;4.50;;;;;;;-145.18;100.00;46677.97;4964252;28;20046;-72
2022/11/18 03:09:28;;;;;;;12.47;4.70;;;;;;;-145.18;100.00;46679.94;4952760;29;20404;-70
2022/11/18 03:12:09;;;;;;;10.70;4.37;;;;;;;-145.18;100.00;46674.06;4936386;29;20646;-72
2022/11/18 03:14:40;;;;;;;10.97;4.63;;;;;;;-145.18;100.00;46681.88;4954124;29;20820;-72
2022/11/18 03:17:18;;;;;;;14.77;5.00;;;;;;;-145.18;100.00;46676.03;4954289;29;20969;-70
2022/11/18 03:20:15;;;;;;;9.37;4.53;;;;;;;-145.18;100.00;46674.06;4954050;29;20324;-70
2022/11/18 03:22:43;;;;;;;12.77;4.60;;;;;;;-145.18;100.00;46679.94;4954052;29;20320;-71
2022/11/18 03:25:15;;;;;;;10.77;5.43;;;;;;;-145.18;100.00;46679.94;4954303;29;20277;-70
2022/11/18 03:27:45;;;;;;;10.60;4.30;;;;;;;-145.18;100.00;46674.06;4952488;29;20649;-70
2022/11/18 03:30:17;;;;;;;10.23;4.43;;;;;;;-145.18;100.00;46677.97;4954261;29;20344;-70
2022/11/18 03:32:48;;;;;;;10.13;5.60;;;;;;;-145.18;100.00;46681.88;4953809;29;20339;-71
2022/11/18 03:35:20;;;;;;;13.23;5.03;;;;;;;-145.18;100.00;46676.03;4954178;29;20273;-70
2022/11/18 03:37:51;;;;;;;11.33;4.77;;;;;;;-145.18;100.00;46679.94;4953533;29;20277;-70
2022/11/18 03:40:25;;;;;;;12.20;4.80;;;;;;;-145.18;100.00;46674.06;4954298;29;20381;-71
2022/11/18 03:42:57;;;;;;;7.57;4.60;;;;;;;-145.18;100.00;46679.94;4953773;28;20273;-70
2022/11/18 03:45:30;;;;;;;8.33;4.60;;;;;;;-145.18;100.00;46677.97;4973581;28;20308;-70
2022/11/18 03:48:07;;;;;;;7.47;4.80;;;;;;;-145.18;100.00;46676.03;4973428;28;20339;-70
2022/11/18 03:50:38;;;;;;;13.57;4.93;;;;;;;-145.18;100.00;46676.03;4973483;28;20265;-71
2022/11/18 03:53:06;;;;;;;10.97;4.67;;;;;;;-145.18;100.00;46677.97;4973660;28;20277;-71
2022/11/18 03:55:37;;;;;;;13.43;5.87;;;;;;;-145.18;100.00;46683.84;4973269;28;20280;-71
2022/11/18 03:58:09;;;;;;;12.00;5.47;;;;;;;-145.18;100.00;46672.13;4973364;28;20284;-71
2022/11/18 04:00:40;;;;;;;7.67;5.07;;;;;;;-145.18;100.00;46676.03;4972581;28;20261;-71
2022/11/18 04:03:05;;;;;;;9.13;4.77;;;;;;;-145.18;100.00;46683.84;4972743;28;20681;-71
2022/11/18 04:05:36;;;;;;;10.03;4.83;;;;;;;-145.18;100.00;46676.03;4972427;28;20355;-71
2022/11/18 04:08:06;;;;;;;9.60;4.77;;;;;;;-145.18;100.00;46677.97;4955883;28;20023;-70
2022/11/18 04:10:48;;;;;;;14.20;5.20;;;;;;;-145.18;100.00;46676.03;4973248;28;20268;-72
2022/11/18 04:13:22;;;;;;;11.57;5.10;;;;;;;-145.18;100.00;46677.97;4960143;28;20261;-71
2022/11/18 04:15:47;;;;;;;18.50;5.13;;;;;;;-145.18;100.00;46679.94;4953895;28;20364;-73
2022/11/18 04:18:13;;;;;;;7.77;4.93;;;;;;;-145.18;100.00;46679.94;4942584;28;20321;-71
2022/11/18 04:20:38;;;;;;;9.80;5.23;;;;;;;-145.18;100.00;46677.97;4934508;29;20032;-71
2022/11/18 04:23:05;;;;;;;10.33;4.23;;;;;;;-145.18;100.00;46674.06;4932846;29;20072;-70
2022/11/18 04:25:31;;;;;;;12.03;4.77;;;;;;;-145.18;100.00;46676.03;4934497;29;20503;-70
2022/11/18 04:27:56;;;;;;;8.77;4.53;;;;;;;-145.18;100.00;46676.03;4934324;29;20353;-71
2022/11/18 04:30:22;;;;;;;10.60;5.00;;;;;;;-145.18;100.00;46670.16;4934769;29;20043;-72
2022/11/18 04:32:47;;;;;;;11.00;4.97;;;;;;;-145.18;100.00;46677.97;4933924;29;20043;-72
2022/11/18 04:35:13;;;;;;;18.20;4.97;;;;;;;-145.18;100.00;46676.03;4934589;29;20040;-71
2022/11/18 04:37:39;;;;;;;10.10;4.80;;;;;;;-145.18;100.00;46672.13;4932615;29;20048;-71
2022/11/18 04:40:05;;;;;;;10.17;4.37;;;;;;;-145.18;100.00;46674.06;4934005;29;20321;-72
2022/11/18 04:42:30;;;;;;;10.13;4.57;;;;;;;-145.18;100.00;46668.22;4934137;29;20035;-73
2022/11/18 04:44:55;;;;;;;9.10;4.33;;;;;;;-145.18;100.00;46677.97;4934480;29;20270;-73
2022/11/18 04:47:21;;;;;;;15.90;4.83;;;;;;;-145.18;100.00;46674.06;4934289;29;20102;-70
2022/11/18 04:49:46;;;;;;;10.17;5.27;;;;;;;-145.18;100.00;46672.13;4933991;29;20927;-71
2022/11/18 04:52:12;;;;;;;11.93;5.00;;;;;;;-145.18;100.00;46674.06;4934095;29;20509;-71
2022/11/18 04:54:37;;;;;;;7.93;4.50;;;;;;;-145.18;100.00;46679.94;4933629;29;20091;-71
2022/11/18 04:57:03;;;;;;;11.40;4.37;;;;;;;-145.18;100.00;46676.03;4934142;29;20046;-70
2022/11/18 04:59:29;;;;;;;12.13;4.50;;;;;;;-145.18;100.00;46670.16;4933649;29;20496;-70
2022/11/18 05:01:55;;;;;;;13.27;4.37;;;;;;;-145.18;100.00;46681.88;4948818;28;20108;-70
2022/11/18 05:04:29;;;;;;;10.20;4.63;;;;;;;-145.18;100.00;46676.03;4971853;28;20086;-72
2022/11/18 05:06:55;;;;;;;9.93;4.40;;;;;;;-145.18;100.00;46681.88;4972097;28;20305;-71
2022/11/18 05:09:21;;;;;;;8.53;4.30;;;;;;;-145.18;100.00;46676.03;4972171;28;20323;-71
2022/11/18 05:14:32;;;;;;;13.37;4.80;;;;;;;-145.18;100.00;46674.06;4972197;28;20351;-70
2022/11/18 05:16:59;;;;;;;10.73;5.17;;;;;;;-145.18;100.00;46676.03;4972017;28;20297;-72
2022/11/18 05:19:24;;;;;;;9.13;4.57;;;;;;;-145.18;100.00;46676.03;4971761;28;20031;-70
2022/11/18 05:21:50;;;;;;;12.47;4.83;;;;;;;-145.18;100.00;46677.97;4971639;28;20279;-70
2022/11/18 05:24:16;;;;;;;10.97;4.43;;;;;;;-145.18;100.00;46674.06;4971607;28;20504;-72
2022/11/18 05:26:41;;;;;;;8.10;4.23;;;;;;;-145.18;100.00;46679.94;4971877;28;20085;-70
2022/11/18 05:29:06;;;;;;;16.97;5.37;;;;;;;-145.18;100.00;46668.22;4971456;28;20031;-70
2022/11/18 05:31:32;;;;;;;10.40;4.00;;;;;;;-145.18;100.00;46674.06;4938069;28;20043;-71
2022/11/18 05:33:58;;;;;;;9.40;4.33;;;;;;;-145.18;100.00;46674.06;4961287;28;20117;-71
2022/11/18 05:36:24;;;;;;;12.03;4.47;;;;;;;-145.18;100.00;46676.03;4952515;29;20055;-71
2022/11/18 05:38:49;;;;;;;11.83;4.47;;;;;;;-145.18;100.00;46674.06;4952001;29;20292;-71
2022/11/18 05:44:01;;;;;;;13.50;4.00;;;;;;;-145.18;100.00;46677.97;4951423;29;20043;-71
2022/11/18 05:46:27;;;;;;;11.77;4.90;;;;;;;-145.18;100.00;46674.06;4950457;29;20125;-71
2022/11/18 05:48:53;;;;;;;8.83;3.87;;;;;;;-145.18;100.00;46670.16;4950487;29;20780;-72
2022/11/18 05:51:19;;;;;;;12.00;4.40;;;;;;;-145.18;100.00;46672.13;4950240;29;20265;-72
2022/11/18 05:53:46;;;;;;;13.47;4.10;;;;;;;-145.18;100.00;46672.13;4950332;29;20024;-72
2022/11/18 05:56:44;;;;;;;9.93;4.80;;;;;;;-145.18;100.00;46674.06;4951124;29;20649;-71
2022/11/18 05:59:10;;;;;;;14.00;5.10;;;;;;;-145.18;100.00;46676.03;4952726;29;20400;-72
2022/11/18 06:01:45;;;;;;;9.13;4.13;;;;;;;-145.18;100.00;46677.97;4952108;28;20316;-72
2022/11/18 06:04:27;;;;;;;7.70;4.07;;;;;;;-145.18;100.00;46679.94;4951948;29;20453;-71
2022/11/18 06:06:59;;;;;;;9.67;4.23;;;;;;;-145.18;100.00;46681.88;4952278;29;20297;-72
2022/11/18 06:09:29;;;;;;;9.90;4.23;;;;;;;-145.18;100.00;46676.03;4952408;29;20274;-71
2022/11/18 06:11:56;;;;;;;10.00;4.17;;;;;;;-145.18;100.00;46677.97;4956306;28;20305;-72
2022/11/18 06:14:27;;;;;;;7.47;4.20;;;;;;;-145.18;100.00;46677.97;4970460;28;20333;-71
2022/11/18 06:16:56;;;;;;;8.57;4.70;;;;;;;-145.18;100.00;46674.06;4970295;28;20637;-72
2022/11/18 06:19:22;;;;;;;9.87;4.73;;;;;;;-145.18;100.00;46672.13;4970757;28;20265;-71
2022/11/18 06:21:48;;;;;;;12.27;4.77;;;;;;;-145.18;100.00;46683.84;4970295;28;20972;-72
2022/11/18 06:24:15;;;;;;;11.73;4.70;;;;;;;-145.18;100.00;46674.06;4971175;28;20038;-71
2022/11/18 06:26:41;;;;;;;13.63;4.20;;;;;;;-145.18;100.00;46681.88;4974042;28;20788;-72
2022/11/18 06:29:08;;;;;;;11.43;4.97;;;;;;;-145.18;100.00;46679.94;4975219;28;20757;-72
2022/11/18 06:31:34;;;;;;;11.07;4.60;;;;;;;-145.18;100.00;46681.88;4974935;28;20717;-71
2022/11/18 06:33:59;;;;;;;14.27;5.87;;;;;;;-145.18;100.00;46679.94;4975437;28;20326;-72
2022/11/18 06:36:25;;;;;;;8.27;4.57;;;;;;;-145.18;100.00;46677.97;4957675;28;20038;-72
2022/11/18 06:38:50;;;;;;;10.10;5.73;;;;;;;-145.18;100.00;46691.66;4953164;28;20511;-71
2022/11/18 06:41:16;;;;;;;10.53;4.90;;;;;;;-145.18;100.00;46674.06;4975007;28;20042;-71
2022/11/18 06:43:42;;;;;;;10.57;4.93;;;;;;;-145.18;100.00;46681.88;4974672;28;20030;-71
2022/11/18 06:48:57;;;;;;;12.20;5.00;;;;;;;-145.18;100.00;46672.13;4974810;28;20057;-71
2022/11/18 06:51:23;;;;;;;13.93;5.60;;;;;;;-145.18;100.00;46677.97;4958036;28;20285;-71
2022/11/18 06:53:49;;;;;;;12.23;5.73;;;;;;;-145.18;100.00;46679.94;4955375;29;20459;-71
2022/11/18 06:56:15;;;;;;;13.33;5.70;;;;;;;-145.18;100.00;46676.03;4955586;29;20266;-71
2022/11/18 06:58:41;;;;;;;10.97;5.13;;;;;;;-145.18;100.00;46677.97;4955228;29;20273;-71
2022/11/18 07:01:14;;;;;;;12.00;6.13;;;;;;;-145.18;100.00;46676.03;4955416;29;20739;-71
2022/11/18 07:03:41;;;;;;;15.90;5.23;;;;;;;-145.18;100.00;46676.03;4937536;29;20397;-71
2022/11/18 07:06:07;;;;;;;13.00;5.10;;;;;;;-145.18;100.00;46679.94;4954877;29;20927;-71
2022/11/18 07:08:35;;;;;;;11.03;6.20;;;;;;;-145.18;100.00;46676.03;4954809;29;20622;-71
2022/11/18 07:11:00;;;;;;;12.73;6.30;;;;;;;-145.18;100.00;46676.03;4955255;29;20297;-71
2022/11/18 07:13:26;;;;;;;15.73;7.10;;;;;;;-145.18;100.00;46677.97;4954944;29;20742;-71
2022/11/18 07:15:51;;;;;;;12.77;6.03;;;;;;;-145.18;100.00;46676.03;4954821;29;20035;-71
2022/11/18 07:18:16;;;;;;;13.10;6.27;;;;;;;-145.18;100.00;46677.97;4954406;29;20118;-71
2022/11/18 07:20:42;;;;;;;13.77;6.30;;;;;;;-145.18;100.00;46676.03;4936559;29;20079;-71
2022/11/18 07:23:07;;;;;;;10.30;5.70;;;;;;;-145.18;100.00;46674.06;4954445;29;20077;-72
2022/11/18 07:25:32;;;;;;;28.00;8.10;;;;;;;-145.18;100.00;46687.75;4954470;29;20508;-71
2022/11/18 07:27:58;;;;;;;14.23;5.70;;;;;;;-145.18;100.00;46677.97;4937960;29;20039;-72
2022/11/18 07:30:23;;;;;;;12.27;6.20;;;;;;;-145.18;100.00;46676.03;4954402;28;20032;-71
2022/11/18 07:32:48;;;;;;;13.37;5.97;;;;;;;-145.18;100.00;46676.03;4970607;28;20220;-72
2022/11/18 07:35:15;;;;;;;12.43;6.30;;;;;;;-145.18;100.00;46679.94;4973437;28;20039;-72
2022/11/18 07:37:41;;;;;;;18.27;6.53;;;;;;;-145.18;100.00;46676.03;4957748;28;20059;-71
2022/11/18 07:40:07;;;;;;;13.97;6.30;;;;;;;-145.18;100.00;46674.06;4954411;28;20361;-71
2022/11/18 07:42:41;;;;;;;10.07;6.13;;;;;;;-145.18;100.00;46676.03;4952753;29;20106;-71
2022/11/18 07:45:11;;;;;;;16.47;6.93;;;;;;;-145.18;100.00;46676.03;4953296;29;20265;-71
2022/11/18 07:47:36;;;;;;;10.00;5.33;;;;;;;-145.18;100.00;46674.06;4954291;28;20797;-70
2022/11/18 07:50:02;;;;;;;11.93;6.77;;;;;;;-145.18;100.00;46681.88;4954424;28;20276;-71
2022/11/18 07:52:28;;;;;;;17.07;6.47;;;;;;;-145.18;100.00;46674.06;4936490;29;20046;-71
2022/11/18 07:54:53;;;;;;;12.83;6.23;;;;;;;-145.18;100.00;46683.84;4954218;29;20277;-71
2022/11/18 07:57:18;;;;;;;11.70;6.33;;;;;;;-145.18;100.00;46677.97;4954691;29;20031;-72
2022/11/18 07:59:44;;;;;;;15.93;6.47;;;;;;;-145.18;100.00;46676.03;4954181;28;20087;-71
2022/11/18 08:02:12;;;;;;;15.33;6.03;;;;;;;-145.18;100.00;46685.78;4954347;28;20074;-71
2022/11/18 08:04:38;;;;;;;13.63;6.13;;;;;;;-145.18;100.00;46676.03;4952632;29;20054;-71
2022/11/18 08:07:03;;;;;;;10.53;6.20;;;;;;;-145.18;100.00;46674.06;4954824;28;20301;-72
2022/11/18 08:09:28;;;;;;;15.60;6.93;;;;;;;-145.18;100.00;46677.97;4954252;29;20031;-71
2022/11/18 08:11:54;;;;;;;13.63;6.93;;;;;;;-145.18;100.00;46679.94;4954090;29;20051;-72
2022/11/18 08:14:20;;;;;;;12.17;6.80;;;;;;;-145.18;100.00;46681.88;4954071;29;20047;-71
2022/11/18 08:16:47;;;;;;;12.43;6.97;;;;;;;-145.18;100.00;46681.88;4954076;28;20112;-71
2022/11/18 08:19:12;;;;;;;16.57;6.60;;;;;;;-145.18;100.00;46677.97;4953927;29;20289;-72
2022/11/18 08:21:38;;;;;;;12.57;6.53;;;;;;;-145.18;100.00;46679.94;4954224;29;20050;-71
2022/11/18 08:24:03;;;;;;;16.20;6.60;;;;;;;-145.18;100.00;46679.94;4953867;29;20039;-71
2022/11/18 08:26:29;;;;;;;12.73;6.30;;;;;;;-145.18;100.00;46670.16;4953885;28;20130;-72
2022/11/18 08:28:54;;;;;;;17.23;6.60;;;;;;;-145.18;100.00;46679.94;4953810;29;20039;-72
2022/11/18 08:31:25;;;;;;;12.40;6.03;;;;;;;-145.18;100.00;46676.03;4953960;28;20062;-71
2022/11/18 08:33:55;;;;;;;11.53;6.03;;;;;;;-145.18;100.00;46681.88;4953672;28;20086;-72
2022/11/18 08:36:23;;;;;;;14.83;6.60;;;;;;;-145.18;100.00;46677.97;4954006;28;20272;-72
2022/11/18 08:38:49;;;;;;;15.33;6.27;;;;;;;-145.18;100.00;46672.13;4953433;28;20269;-72
2022/11/18 08:41:19;;;;;;;12.57;6.30;;;;;;;-145.18;100.00;46679.94;4953732;29;20277;-71
2022/11/18 08:43:45;;;;;;;13.83;6.60;;;;;;;-145.18;100.00;46679.94;4953269;28;20443;-72
2022/11/18 08:46:10;;;;;;;12.43;6.43;;;;;;;-145.18;100.00;46679.94;4953646;29;20293;-71
2022/11/18 08:48:35;;;;;;;14.70;8.70;;;;;;;-145.18;100.00;46679.94;4951524;28;20499;-72
2022/11/18 08:51:01;;;;;;;11.77;6.03;;;;;;;-145.18;100.00;46679.94;4953761;29;20042;-72
2022/11/18 08:53:27;;;;;;;13.90;5.97;;;;;;;-145.18;100.00;46681.88;4953530;28;20074;-72
2022/11/18 08:56:00;;;;;;;12.03;5.90;;;;;;;-145.18;100.00;46683.84;4952632;29;20042;-72
2022/11/18 09:05:03;;;;;;;11.47;5.17;;;;;;;-145.18;100.00;46679.94;5015787;23;20307;-72
2022/11/18 09:07:28;;;;;;;10.33;5.03;;;;;;;-145.18;100.00;46685.78;5010316;28;20310;-72
2022/11/18 09:09:54;;;;;;;12.03;4.73;;;;;;;-145.18;100.00;46683.84;5010037;28;20112;-72
2022/11/18 09:12:19;;;;;;;10.03;4.60;;;;;;;-145.18;100.00;46683.84;4992498;28;20469;-72
2022/11/18 09:14:44;;;;;;;9.17;5.03;;;;;;;-145.18;100.00;46681.88;4993215;28;20030;-72
2022/11/18 09:17:10;;;;;;;9.53;4.10;;;;;;;-145.18;100.00;46683.84;5010454;28;20042;-72
2022/11/18 09:19:36;;;;;;;15.27;5.00;;;;;;;-145.18;100.00;46683.84;5010441;28;20042;-72
2022/11/18 09:22:02;;;;;;;14.27;4.53;;;;;;;-145.18;100.00;46685.78;5009482;28;20071;-72
2022/11/18 09:27:05;;;;;;;16.38;4.40;;;;;;;-145.18;100.00;46687.75;4407103;23;20367;-69
2022/11/18 09:29:31;;;;;;;11.13;4.27;;;;;;;-145.18;100.00;46689.69;5010895;28;20046;-70
2022/11/18 09:31:56;;;;;;;11.80;3.90;;;;;;;-145.18;100.00;46687.75;5010676;28;20270;-70
2022/11/18 09:34:22;;;;;;;14.80;4.43;;;;;;;-145.18;100.00;46687.75;4992851;28;20037;-70
2022/11/18 09:36:48;;;;;;;12.90;4.00;;;;;;;-145.18;100.00;46689.69;5010716;28;20494;-70
2022/11/18 09:39:13;;;;;;;9.17;4.30;;;;;;;-145.18;100.00;46689.69;5010451;28;20057;-72
2022/11/18 09:41:53;;;;;;;9.30;4.20;;;;;;;-145.18;100.00;46693.59;5010506;28;20034;-73
2022/11/18 09:44:45;;;;;;;10.07;3.93;;;;;;;-145.18;100.00;46689.69;5010470;28;20109;-73
2022/11/18 09:47:16;;;;;;;13.33;4.10;;;;;;;-145.18;100.00;46689.69;5006264;28;20675;-73
2022/11/18 09:49:43;;;;;;;8.87;3.60;;;;;;;-145.18;100.00;46695.56;5010732;28;20354;-70
2022/11/18 09:52:11;;;;;;;13.27;4.77;;;;;;;-145.18;100.00;46691.66;5010628;28;20309;-73
2022/11/18 09:54:38;;;;;;;15.07;4.23;;;;;;;-145.18;100.00;46697.50;5010156;28;20748;-73
2022/11/18 09:57:15;;;;;;;11.07;4.17;;;;;;;-145.18;100.00;46693.59;5010163;28;20267;-73
2022/11/18 09:59:42;;;;;;;11.37;4.17;;;;;;;-145.18;100.00;46701.41;5012109;28;20771;-73
2022/11/18 10:02:33;;;;;;;13.00;3.87;;;;;;;-145.18;100.00;46691.66;5017515;28;20263;-73
2022/11/18 10:05:14;;;;;;;8.87;3.90;;;;;;;-145.18;100.00;46695.56;5014459;28;20365;-73
2022/11/18 10:07:57;;;;;;;11.47;3.97;;;;;;;-145.18;100.00;46703.38;5018567;28;20298;-73
2022/11/18 10:10:33;;;;;;;7.93;3.93;;;;;;;-145.18;100.00;46695.56;5033945;28;20349;-73
2022/11/18 10:13:09;;;;;;;10.70;3.80;;;;;;;-145.18;100.00;46699.47;5027308;28;20631;-73
2022/11/18 10:15:42;;;;;;;12.43;3.80;;;;;;;-145.18;100.00;46701.41;5014139;28;20275;-73
2022/11/18 10:18:30;;;;;;;7.90;3.43;;;;;;;-145.18;100.00;46697.50;5014559;28;20271;-73
2022/11/18 10:21:06;;;;;;;17.97;4.27;;;;;;;-145.18;100.00;46701.41;5014067;28;20267;-73
2022/11/18 10:23:39;;;;;;;11.83;3.73;;;;;;;-145.18;100.00;46697.50;5013875;28;20747;-73
2022/11/18 10:26:05;;;;;;;6.83;3.17;;;;;;;-145.18;100.00;46701.41;5013793;28;20287;-73
2022/11/18 10:28:30;;;;;;;9.67;4.03;;;;;;;-145.18;100.00;46695.56;5024210;28;20285;-73
2022/11/18 10:31:10;;;;;;;11.30;3.80;;;;;;;-145.18;100.00;46697.50;5033566;28;20057;-73
2022/11/18 10:33:37;;;;;;;8.40;3.73;;;;;;;-145.18;100.00;46695.56;5033378;28;20041;-73
2022/11/18 10:36:25;;;;;;;9.20;4.20;;;;;;;-145.18;100.00;46701.41;5033601;28;20659;-73
2022/11/18 10:39:09;;;;;;;11.83;3.97;;;;;;;-145.18;100.00;46699.47;5021398;28;20280;-73
2022/11/18 10:41:45;;;;;;;11.03;4.13;;;;;;;-145.18;100.00;46699.47;5013632;28;20271;-73
2022/11/18 10:44:37;;;;;;;9.30;3.73;;;;;;;-145.18;100.00;46703.38;5028528;28;20273;-73
2022/11/18 10:47:32;;;;;;;8.50;3.13;;;;;;;-145.18;100.00;46701.41;5033483;28;20282;-73
2022/11/18 10:50:37;;;;;;;15.37;3.90;;;;;;;-145.18;100.00;46695.56;5033725;28;20060;-73
2022/11/18 10:53:04;;;;;;;12.63;3.93;;;;;;;-145.18;100.00;46691.66;5033197;28;20387;-73
2022/11/18 10:55:30;;;;;;;12.33;3.87;;;;;;;-145.18;100.00;46691.66;5032899;28;20812;-73
2022/11/18 10:58:16;;;;;;;12.47;3.60;;;;;;;-145.18;100.00;46691.66;5033181;28;20392;-73
2022/11/18 11:00:44;;;;;;;9.07;3.40;;;;;;;-145.18;100.00;46677.97;5032375;28;20076;-73
2022/11/18 11:03:33;;;;;;;9.73;4.00;;;;;;;-145.18;100.00;46666.25;5032613;28;20501;-72
2022/11/18 11:06:17;;;;;;;14.37;4.07;;;;;;;-145.18;100.00;46611.56;5033045;28;20029;-73
2022/11/18 11:09:05;;;;;;;11.13;3.40;;;;;;;-145.18;100.00;46597.88;5032830;28;20394;-73
2022/11/18 11:11:42;;;;;;;14.43;4.07;;;;;;;-145.18;100.00;46603.75;5032802;28;20029;-73
2022/11/18 11:14:28;;;;;;;11.57;3.70;;;;;;;-145.18;100.00;46601.78;5032545;28;20561;-73
2022/11/18 11:17:13;;;;;;;10.30;3.53;;;;;;;-145.18;100.00;46607.66;5032814;28;20033;-73
2022/11/18 11:19:50;;;;;;;9.27;4.00;;;;;;;-145.18;100.00;46599.84;5032784;28;20432;-73
2022/11/18 11:22:16;;;;;;;9.93;3.67;;;;;;;-145.18;100.00;46595.94;5032999;28;20080;-73
2022/11/18 11:24:43;;;;;;;10.43;3.80;;;;;;;-145.18;100.00;46590.06;5032189;28;20032;-73
2022/11/18 11:27:27;;;;;;;12.07;4.23;;;;;;;-145.18;100.00;46580.31;5032732;28;20056;-73
2022/11/18 11:30:19;;;;;;;8.57;4.23;;;;;;;-145.18;100.00;46584.22;5032383;28;20037;-73
2022/11/18 11:33:20;;;;;;;9.50;3.70;;;;;;;-145.18;100.00;46590.06;5032356;28;20021;-72
2022/11/18 11:36:06;;;;;;;13.60;4.33;;;;;;;-145.18;100.00;46601.78;4976345;28;20235;-73
2022/11/18 11:39:04;;;;;;;9.93;4.07;;;;;;;-145.18;100.00;46592.03;5031900;28;20064;-73
2022/11/18 11:41:42;;;;;;;10.30;4.13;;;;;;;-145.18;100.00;46597.88;4949540;28;20502;-72
2022/11/18 11:44:36;;;;;;;14.50;4.97;;;;;;;-145.18;100.00;46586.16;5007109;28;20139;-72
2022/11/18 11:50:18;;;;;;;12.43;5.00;;;;;;;-145.18;100.00;46584.22;5009700;28;20081;-73
2022/11/18 11:52:56;;;;;;;13.90;5.80;;;;;;;-145.18;100.00;46590.06;5010992;28;20505;-72